Time;durP1;ratioP1;P1;durP2;ratioP2;P2;SDS_P1;SDS_P2;PMS_P1;PMS_P2;Temp;Humidity;BMP_temperature;BMP_pressure;BME280_temperature;BME280_humidity;BME280_pressure;Samples;Min_cycle;Max_cycle;Signal;HPM_P1;HPM_P2
2022/01/18 00:00:51;;;;;;;36.10;6.80;;;;;;;-145.82;100.00;61645.16;4964802;28;20194;-69
2022/01/18 00:03:16;;;;;;;40.63;5.50;;;;;;;-145.82;100.00;61645.16;4962568;28;20035;-69
2022/01/18 00:05:44;;;;;;;23.80;5.32;;;;;;;-145.82;100.00;61645.16;4964030;28;20133;-67
2022/01/18 00:08:10;;;;;;;27.20;4.55;;;;;;;-145.82;100.00;61645.16;4962129;28;20051;-67
2022/01/18 00:10:35;;;;;;;24.20;5.40;;;;;;;-145.82;100.00;61645.16;4964074;28;20081;-68
2022/01/18 00:15:32;;;;;;;33.60;5.03;;;;;;;-145.82;100.00;61645.16;4963892;28;20081;-69
2022/01/18 00:23:42;;;;;;;27.98;4.53;;;;;;;-145.82;100.00;61645.16;4957624;28;20047;-72
2022/01/18 00:26:09;;;;;;;25.00;4.90;;;;;;;-145.82;100.00;61645.16;4963937;28;20494;-69
2022/01/18 00:28:38;;;;;;;22.95;5.43;;;;;;;-145.82;100.00;61645.16;4963431;28;20469;-68
2022/01/18 00:34:03;;;;;;;31.95;4.57;;;;;;;-145.82;100.00;61645.16;4963559;28;20038;-67
2022/01/18 00:39:02;;;;;;;31.17;4.60;;;;;;;-145.82;100.00;61645.16;4962405;28;20038;-70
2022/01/18 00:41:28;;;;;;;19.42;4.07;;;;;;;-145.82;100.00;61645.16;4962717;28;20102;-72
2022/01/18 00:43:54;;;;;;;28.52;4.30;;;;;;;-145.82;100.00;61645.16;4962565;28;20034;-72
2022/01/18 00:46:20;;;;;;;32.47;4.15;;;;;;;-145.82;100.00;61645.16;4963632;28;20026;-71
2022/01/18 00:48:46;;;;;;;82.45;7.13;;;;;;;-145.82;100.00;61645.16;4963793;28;20386;-70
2022/01/18 00:51:13;;;;;;;17.95;4.45;;;;;;;-145.82;100.00;61645.16;4962663;28;20054;-71
2022/01/18 00:53:41;;;;;;;21.13;4.05;;;;;;;-145.82;100.00;61645.16;4964635;28;20048;-70
2022/01/18 00:58:39;;;;;;;28.98;3.80;;;;;;;-145.82;100.00;61645.16;4964219;28;20449;-70
2022/01/18 01:01:05;;;;;;;30.48;4.25;;;;;;;-145.82;100.00;61645.16;4963994;28;20051;-71
2022/01/18 01:03:34;;;;;;;25.45;3.78;;;;;;;-145.82;100.00;61645.16;4964090;28;20060;-72
2022/01/18 01:06:00;;;;;;;46.10;4.22;;;;;;;-145.82;100.00;61645.16;4963475;28;20035;-69
2022/01/18 01:08:26;;;;;;;29.35;3.90;;;;;;;-145.82;100.00;61645.16;4962846;28;20037;-70
2022/01/18 01:10:52;;;;;;;25.45;3.60;;;;;;;-145.82;100.00;61645.16;4964049;28;20411;-70
2022/01/18 01:13:18;;;;;;;20.35;3.90;;;;;;;-145.82;100.00;61645.16;4963640;28;20209;-69
2022/01/18 01:16:10;;;;;;;24.50;3.65;;;;;;;-145.82;100.00;61645.16;4964064;28;20042;-70
2022/01/18 01:19:06;;;;;;;32.83;3.83;;;;;;;-145.82;100.00;61645.16;4963748;28;20038;-69
2022/01/18 01:36:04;;;;;;;28.38;5.13;;;;;;;-145.82;100.00;61645.16;4963160;28;20401;-70
2022/01/18 01:43:50;;;;;;;95.07;5.40;;;;;;;-145.82;100.00;61645.16;4962128;28;20429;-70
2022/01/18 01:46:18;;;;;;;83.85;5.72;;;;;;;-145.82;100.00;61645.16;4962240;28;20035;-68
2022/01/18 01:48:46;;;;;;;272.92;9.20;;;;;;;-145.82;100.00;61645.16;4963009;28;20035;-67
2022/01/18 01:51:11;;;;;;;180.05;7.22;;;;;;;-145.82;100.00;61645.16;4962829;28;20101;-68
2022/01/18 01:53:37;;;;;;;260.73;8.18;;;;;;;-145.82;100.00;61645.16;4962444;28;20405;-68
2022/01/18 01:56:04;;;;;;;46.70;5.00;;;;;;;-145.82;100.00;61645.16;4962320;28;20042;-70
2022/01/18 01:58:29;;;;;;;61.03;5.57;;;;;;;-145.82;100.00;61645.16;4962718;28;20027;-68
2022/01/18 02:01:02;;;;;;;38.08;5.60;;;;;;;-145.82;100.00;61645.16;4963826;28;20058;-68
2022/01/18 02:03:27;;;;;;;26.55;5.45;;;;;;;-145.82;100.00;61645.16;4963662;28;20462;-68
2022/01/18 02:05:53;;;;;;;67.20;6.22;;;;;;;-145.82;100.00;61645.16;4961354;28;20140;-71
2022/01/18 02:08:18;;;;;;;152.27;7.60;;;;;;;-145.82;100.00;61645.16;4961047;28;20042;-69
2022/01/18 02:10:44;;;;;;;97.13;6.85;;;;;;;-145.82;100.00;61645.16;4964083;28;20053;-68
2022/01/18 02:13:12;;;;;;;220.18;10.02;;;;;;;-145.82;100.00;61645.16;4960582;28;20050;-68
2022/01/18 02:15:41;;;;;;;220.50;9.02;;;;;;;-145.82;100.00;61645.16;4964820;28;20074;-68
2022/01/18 02:23:49;;;;;;;174.18;9.38;;;;;;;-145.82;100.00;61645.16;4950473;28;20073;-70
2022/01/18 02:26:15;;;;;;;70.72;7.90;;;;;;;-145.82;100.00;61645.16;4962132;28;20114;-69
2022/01/18 02:28:40;;;;;;;50.28;6.03;;;;;;;-145.82;100.00;61645.16;4960794;28;20050;-69
2022/01/18 02:31:05;;;;;;;91.60;6.88;;;;;;;-145.82;100.00;61645.16;4961293;28;20505;-68
2022/01/18 02:33:32;;;;;;;77.60;7.45;;;;;;;-145.82;100.00;61645.16;4962156;28;20047;-68
2022/01/18 02:35:58;;;;;;;195.15;9.13;;;;;;;-145.82;100.00;61645.16;4962579;28;20105;-68
2022/01/18 02:38:23;;;;;;;247.57;10.45;;;;;;;-145.82;100.00;61645.16;4961167;28;20442;-68
2022/01/18 02:40:49;;;;;;;431.98;15.23;;;;;;;-145.82;100.00;61645.16;4963277;28;20031;-69
2022/01/18 02:45:58;;;;;;;462.80;14.90;;;;;;;-145.82;100.00;61645.16;4962143;28;20200;-70
2022/01/18 02:48:25;;;;;;;363.80;11.85;;;;;;;-145.82;100.00;61645.16;4961983;28;20038;-68
2022/01/18 02:50:51;;;;;;;272.15;9.88;;;;;;;-145.82;100.00;61645.16;4965069;28;20049;-68
2022/01/18 02:53:17;;;;;;;224.90;9.07;;;;;;;-145.82;100.00;61645.16;4959321;28;20046;-70
2022/01/18 02:55:48;;;;;;;366.00;11.20;;;;;;;-145.82;100.00;61645.16;4963464;28;20320;-68
2022/01/18 02:58:21;;;;;;;417.80;12.90;;;;;;;-145.82;100.00;61645.16;4959387;28;20118;-70
2022/01/18 03:03:37;;;;;;;408.40;13.05;;;;;;;-145.82;100.00;61645.16;4962706;28;20228;-68
2022/01/18 03:06:05;;;;;;;482.40;16.20;;;;;;;-145.82;100.00;61645.16;4962529;28;20040;-69
2022/01/18 03:08:31;;;;;;;580.92;16.95;;;;;;;-145.82;100.00;61645.16;4962687;28;20042;-71
2022/01/18 03:10:57;;;;;;;647.75;22.35;;;;;;;-145.82;100.00;61645.16;4962294;28;20043;-68
2022/01/18 03:13:24;;;;;;;424.30;14.20;;;;;;;-145.82;100.00;61645.16;4978163;28;20031;-69
2022/01/18 03:15:49;;;;;;;473.73;14.90;;;;;;;-145.82;100.00;61645.16;4961897;28;20035;-70
2022/01/18 03:18:15;;;;;;;417.50;13.07;;;;;;;-145.82;100.00;61645.16;4961961;28;20263;-68
2022/01/18 03:20:41;;;;;;;462.50;15.55;;;;;;;-145.82;100.00;61645.16;4963001;28;20525;-68
2022/01/18 03:23:12;;;;;;;342.88;12.77;;;;;;;-145.82;100.00;61645.16;4963414;28;20197;-68
2022/01/18 03:25:55;;;;;;;69.30;6.53;;;;;;;-145.82;100.00;61645.16;4963320;28;20517;-70
2022/01/18 03:28:22;;;;;;;46.45;6.63;;;;;;;-145.82;100.00;61645.16;4963478;28;20043;-68
2022/01/18 03:30:51;;;;;;;46.88;6.32;;;;;;;-145.82;100.00;61645.16;4964983;28;20047;-68
2022/01/18 03:33:18;;;;;;;157.35;10.98;;;;;;;-145.82;100.00;61645.16;4964822;28;20038;-69
2022/01/18 03:35:47;;;;;;;33.47;6.45;;;;;;;-145.82;100.00;61645.16;4967738;28;20377;-68
2022/01/18 03:38:14;;;;;;;33.38;5.90;;;;;;;-145.82;100.00;61645.16;4963846;28;20381;-71
2022/01/18 03:40:40;;;;;;;62.97;7.45;;;;;;;-145.82;100.00;61645.16;4965314;28;20044;-69
2022/01/18 03:43:08;;;;;;;78.32;7.43;;;;;;;-145.82;100.00;61645.16;4964879;28;20042;-68
2022/01/18 03:45:41;;;;;;;176.93;8.80;;;;;;;-145.82;100.00;61645.16;4965996;28;20074;-69
2022/01/18 03:48:27;;;;;;;267.48;10.30;;;;;;;-145.82;100.00;61645.16;4963912;28;20038;-70
2022/01/18 03:50:53;;;;;;;393.58;11.77;;;;;;;-145.82;100.00;61645.16;4964380;28;20062;-70
2022/01/18 03:53:20;;;;;;;420.77;13.88;;;;;;;-145.82;100.00;61645.16;4963815;28;20064;-68
2022/01/18 03:55:46;;;;;;;392.38;12.50;;;;;;;-145.82;100.00;61645.16;4966332;28;20121;-68
2022/01/18 03:58:12;;;;;;;469.15;15.13;;;;;;;-145.82;100.00;61645.16;4963366;28;20050;-69
2022/01/18 04:00:38;;;;;;;239.25;9.80;;;;;;;-145.82;100.00;61645.16;4966976;28;20482;-70
2022/01/18 04:03:03;;;;;;;409.98;13.38;;;;;;;-145.82;100.00;61645.16;4964919;28;20046;-69
2022/01/18 04:05:29;;;;;;;47.83;7.22;;;;;;;-145.82;100.00;61645.16;4965716;28;20397;-68
2022/01/18 04:07:54;;;;;;;272.13;9.48;;;;;;;-145.82;100.00;61645.16;4964203;28;20038;-68
2022/01/18 04:10:20;;;;;;;312.80;10.93;;;;;;;-145.82;100.00;61645.16;4965026;28;20074;-68
2022/01/18 04:12:46;;;;;;;338.58;11.48;;;;;;;-145.82;100.00;61645.16;4938498;28;20506;-68
2022/01/18 04:15:14;;;;;;;236.60;8.55;;;;;;;-145.82;100.00;61645.16;294013;28;10022931;-69
2022/01/18 04:25:54;;;;;;;252.48;9.82;;;;;;;-145.82;100.00;61645.16;4964953;28;20045;-68
2022/01/18 04:30:59;;;;;;;588.30;22.13;;;;;;;-145.82;100.00;61645.16;4963061;28;20466;-70
2022/01/18 04:33:24;;;;;;;186.32;9.68;;;;;;;-145.82;100.00;61645.16;4964633;28;20050;-69
2022/01/18 04:35:50;;;;;;;274.75;10.80;;;;;;;-145.82;100.00;61645.16;4963356;28;20046;-68
2022/01/18 04:38:15;;;;;;;455.98;14.80;;;;;;;-145.82;100.00;61645.16;4962882;28;20027;-69
2022/01/18 04:40:44;;;;;;;663.67;18.70;;;;;;;-145.82;100.00;61645.16;4964522;28;20031;-68
2022/01/18 04:43:46;;;;;;;654.28;19.58;;;;;;;-145.82;100.00;61645.16;4963512;28;20749;-69
2022/01/18 04:48:56;;;;;;;408.10;14.68;;;;;;;-145.82;100.00;61645.16;4964129;28;20207;-68
2022/01/18 04:51:22;;;;;;;393.70;13.13;;;;;;;-145.82;100.00;61645.16;4964487;28;20049;-68
2022/01/18 04:53:53;;;;;;;707.88;20.85;;;;;;;-145.82;100.00;61645.16;4963949;28;20580;-68
2022/01/18 04:56:29;;;;;;;562.03;18.45;;;;;;;-145.82;100.00;61645.16;4964815;28;20509;-70
2022/01/18 04:58:55;;;;;;;916.08;28.38;;;;;;;-145.82;100.00;61645.16;4963279;28;20117;-69
2022/01/18 05:01:21;;;;;;;541.10;18.17;;;;;;;-145.82;100.00;61645.16;4962308;28;20205;-68
2022/01/18 05:03:46;;;;;;;517.22;15.80;;;;;;;-145.82;100.00;61645.16;4964493;28;20031;-68
2022/01/18 05:06:15;;;;;;;710.88;22.13;;;;;;;-145.82;100.00;61645.16;4963179;28;20039;-68
2022/01/18 05:08:41;;;;;;;496.85;15.55;;;;;;;-145.82;100.00;61645.16;4963041;28;20093;-68
2022/01/18 05:11:11;;;;;;;508.50;16.38;;;;;;;-145.82;100.00;61645.16;4962893;28;20055;-68
2022/01/18 05:21:27;;;;;;;620.67;19.83;;;;;;;-145.82;100.00;61645.16;4964534;28;20074;-69
2022/01/18 05:23:54;;;;;;;682.15;20.85;;;;;;;-145.82;100.00;61645.16;4964520;28;20038;-71
2022/01/18 05:26:21;;;;;;;337.58;11.73;;;;;;;-145.82;100.00;61645.16;4964406;28;20163;-68
2022/01/18 05:28:47;;;;;;;511.92;16.42;;;;;;;-145.82;100.00;61645.16;4963538;28;20034;-68
2022/01/18 05:31:13;;;;;;;412.55;13.55;;;;;;;-145.82;100.00;61645.16;4961769;28;20105;-71
2022/01/18 05:33:41;;;;;;;408.75;13.68;;;;;;;-145.82;100.00;61645.16;4963625;28;20019;-68
2022/01/18 05:36:07;;;;;;;298.67;11.25;;;;;;;-145.82;100.00;61645.16;4962320;28;20043;-68
2022/01/18 05:38:33;;;;;;;456.25;16.08;;;;;;;-145.82;100.00;61645.16;4978587;28;20061;-68
2022/01/18 05:41:00;;;;;;;399.75;14.65;;;;;;;-145.82;100.00;61645.16;4962155;28;20054;-68
2022/01/18 05:43:25;;;;;;;142.98;9.00;;;;;;;-145.82;100.00;61645.16;4963040;28;20122;-69
2022/01/18 05:45:51;;;;;;;220.70;10.55;;;;;;;-145.82;100.00;61645.16;4963132;28;20103;-70
2022/01/18 05:48:16;;;;;;;175.30;9.50;;;;;;;-145.82;100.00;61645.16;4976374;28;20029;-68
2022/01/18 05:50:42;;;;;;;190.98;10.07;;;;;;;-145.82;100.00;61645.16;4963940;28;20085;-68
2022/01/18 05:53:07;;;;;;;513.78;16.90;;;;;;;-145.82;100.00;61645.16;4964459;28;20044;-70
2022/01/18 05:55:33;;;;;;;177.73;9.80;;;;;;;-145.82;100.00;61645.16;4962255;28;20058;-70
2022/01/18 05:57:59;;;;;;;236.30;11.70;;;;;;;-145.82;100.00;61645.16;4962322;28;20074;-68
2022/01/18 06:00:26;;;;;;;259.83;11.63;;;;;;;-145.82;100.00;61645.16;4962816;28;20034;-69
2022/01/18 06:08:09;;;;;;;404.98;14.15;;;;;;;-145.82;100.00;61645.16;4960827;28;20433;-68
2022/01/18 06:10:35;;;;;;;374.60;12.15;;;;;;;-145.82;100.00;61645.16;4963397;28;20034;-69
2022/01/18 06:13:02;;;;;;;644.67;19.42;;;;;;;-145.82;100.00;61645.16;4961955;28;20039;-68
2022/01/18 06:15:30;;;;;;;592.08;19.85;;;;;;;-145.82;100.00;61645.16;4962857;28;20062;-70
2022/01/18 06:17:55;;;;;;;251.35;9.88;;;;;;;-145.82;100.00;61645.16;4962651;28;20349;-69
2022/01/18 06:20:21;;;;;;;426.30;13.18;;;;;;;-145.82;100.00;61645.16;4977304;28;20034;-68
2022/01/18 06:22:46;;;;;;;530.40;15.55;;;;;;;-145.82;100.00;61645.16;4962196;28;20470;-68
2022/01/18 06:25:12;;;;;;;630.00;18.25;;;;;;;-145.82;100.00;61645.16;4962190;28;20127;-69
2022/01/18 06:27:38;;;;;;;482.02;16.00;;;;;;;-145.82;100.00;61645.16;4961268;28;20058;-69
2022/01/18 06:30:09;;;;;;;427.63;14.68;;;;;;;-145.82;100.00;61645.16;4962103;28;20050;-68
2022/01/18 06:32:36;;;;;;;540.55;17.50;;;;;;;-145.82;100.00;61645.16;4961889;28;20169;-70
2022/01/18 06:35:02;;;;;;;649.92;20.10;;;;;;;-145.82;100.00;61645.16;4961735;28;20035;-68
2022/01/18 06:37:27;;;;;;;695.78;20.02;;;;;;;-145.82;100.00;61645.16;4963260;28;20050;-68
2022/01/18 06:39:53;;;;;;;582.28;16.20;;;;;;;-145.82;100.00;61645.16;4962945;28;20035;-68
2022/01/18 06:42:20;;;;;;;618.88;17.35;;;;;;;-145.82;100.00;61645.16;4962702;28;20373;-70
2022/01/18 06:44:46;;;;;;;641.70;18.08;;;;;;;-145.82;100.00;61645.16;4962806;28;20031;-71
2022/01/18 06:47:11;;;;;;;540.03;14.65;;;;;;;-145.82;100.00;61645.16;4961660;28;20045;-68
2022/01/18 06:49:37;;;;;;;680.38;20.55;;;;;;;-145.82;100.00;61645.16;4962646;28;20031;-69
2022/01/18 06:52:03;;;;;;;599.80;16.98;;;;;;;-145.82;100.00;61645.16;4962902;28;20077;-70
2022/01/18 06:54:28;;;;;;;485.75;15.95;;;;;;;-145.82;100.00;61645.16;4963154;28;20417;-70
2022/01/18 06:56:53;;;;;;;571.47;17.95;;;;;;;-145.82;100.00;61645.16;4961972;28;20047;-69
2022/01/18 06:59:21;;;;;;;626.65;18.75;;;;;;;-145.82;100.00;61645.16;4962169;28;20047;-70
2022/01/18 07:01:47;;;;;;;302.40;10.73;;;;;;;-145.82;100.00;61645.16;4965668;28;20046;-70
2022/01/18 07:04:12;;;;;;;342.88;12.55;;;;;;;-145.82;100.00;61645.16;4965435;28;20386;-70
2022/01/18 07:06:38;;;;;;;450.98;14.85;;;;;;;-145.82;100.00;61645.16;4965854;28;20047;-69
2022/01/18 07:09:04;;;;;;;301.90;11.93;;;;;;;-145.82;100.00;61645.16;4966182;28;20365;-70
2022/01/18 07:11:32;;;;;;;326.58;12.30;;;;;;;-145.82;100.00;61645.16;4966331;28;20042;-69
2022/01/18 07:13:57;;;;;;;357.42;16.85;;;;;;;-145.82;100.00;61645.16;4965205;28;20031;-70
2022/01/18 07:16:23;;;;;;;395.48;14.27;;;;;;;-145.82;100.00;61645.16;4965721;28;20089;-68
2022/01/18 07:18:48;;;;;;;469.92;15.15;;;;;;;-145.82;100.00;61645.16;4965374;28;20066;-69
2022/01/18 07:21:14;;;;;;;518.55;17.45;;;;;;;-145.82;100.00;61645.16;4964274;28;20038;-68
2022/01/18 07:23:39;;;;;;;587.20;20.63;;;;;;;-145.82;100.00;61645.16;4964858;28;20076;-68
2022/01/18 07:26:05;;;;;;;599.25;19.55;;;;;;;-145.82;100.00;61645.16;4965629;28;20101;-69
2022/01/18 07:28:31;;;;;;;541.67;17.45;;;;;;;-145.82;100.00;61645.16;4965062;28;20042;-69
2022/01/18 07:30:56;;;;;;;254.15;12.68;;;;;;;-145.82;100.00;61645.16;4962276;28;20043;-69
2022/01/18 07:33:22;;;;;;;258.70;13.07;;;;;;;-145.82;100.00;61645.16;4965575;28;20054;-69
2022/01/18 07:35:48;;;;;;;236.00;10.88;;;;;;;-145.82;100.00;61645.16;4966024;28;20038;-69
2022/01/18 07:38:17;;;;;;;180.50;11.52;;;;;;;-145.82;100.00;61645.16;4963959;28;20046;-69
2022/01/18 07:40:49;;;;;;;283.35;11.52;;;;;;;-145.82;100.00;61645.16;4965325;28;20510;-68
2022/01/18 07:43:17;;;;;;;412.83;16.13;;;;;;;-145.82;100.00;61645.16;4962222;28;20137;-68
2022/01/18 07:45:47;;;;;;;298.88;13.50;;;;;;;-145.82;100.00;61645.16;4965934;28;20250;-69
2022/01/18 07:48:13;;;;;;;332.20;13.88;;;;;;;-145.82;100.00;61645.16;4961954;28;20049;-68
2022/01/18 07:50:41;;;;;;;326.75;13.90;;;;;;;-145.82;100.00;61645.16;4965656;28;20030;-68
2022/01/18 07:53:06;;;;;;;441.10;17.83;;;;;;;-145.82;100.00;61645.16;4963893;28;20033;-69
2022/01/18 07:55:32;;;;;;;654.17;20.65;;;;;;;-145.82;100.00;61645.16;4965657;28;20274;-69
2022/01/18 07:57:59;;;;;;;504.58;15.27;;;;;;;-145.82;100.00;61645.16;4961279;28;20287;-68
2022/01/18 08:00:25;;;;;;;361.95;13.00;;;;;;;-145.82;100.00;61645.16;4964645;28;20041;-68
2022/01/18 08:02:51;;;;;;;356.95;13.80;;;;;;;-145.82;100.00;61645.16;4964710;28;20386;-69
2022/01/18 08:05:18;;;;;;;368.23;13.65;;;;;;;-145.82;100.00;61645.16;4964476;28;20161;-69
2022/01/18 08:07:43;;;;;;;491.73;17.85;;;;;;;-145.82;100.00;61645.16;4963710;28;20045;-69
2022/01/18 08:10:11;;;;;;;238.70;12.27;;;;;;;-145.82;100.00;61645.16;4965291;28;20299;-68
2022/01/18 08:12:36;;;;;;;228.70;11.88;;;;;;;-145.82;100.00;61645.16;4962879;28;20359;-68
2022/01/18 08:15:12;;;;;;;377.65;14.77;;;;;;;-145.82;100.00;61645.16;4961810;28;20050;-70
2022/01/18 08:17:39;;;;;;;329.70;12.25;;;;;;;-145.82;100.00;61645.16;4964614;28;20082;-70
2022/01/18 08:20:05;;;;;;;262.75;12.20;;;;;;;-145.82;100.00;61645.16;4965881;28;20035;-69
2022/01/18 08:22:30;;;;;;;263.17;11.88;;;;;;;-145.82;100.00;61645.16;4964000;28;20049;-69
2022/01/18 08:24:56;;;;;;;411.95;13.70;;;;;;;-145.82;100.00;61645.16;4964228;28;20034;-68
2022/01/18 08:27:22;;;;;;;273.25;12.02;;;;;;;-145.82;100.00;61645.16;4964920;28;20045;-68
2022/01/18 08:29:48;;;;;;;301.08;12.98;;;;;;;-145.82;100.00;61645.16;4964094;28;20070;-69
2022/01/18 08:32:13;;;;;;;292.08;11.98;;;;;;;-145.82;100.00;61645.16;4963409;28;20100;-70
2022/01/18 08:34:39;;;;;;;150.65;11.10;;;;;;;-145.82;100.00;61645.16;4967866;28;20144;-70
2022/01/18 08:37:04;;;;;;;185.82;10.90;;;;;;;-145.82;100.00;61645.16;4966432;28;20035;-71
2022/01/18 08:39:30;;;;;;;210.65;11.00;;;;;;;-145.82;100.00;61645.16;4965594;28;20045;-69
2022/01/18 08:41:55;;;;;;;197.05;11.45;;;;;;;-145.82;100.00;61645.16;4964083;28;20466;-68
2022/01/18 08:44:21;;;;;;;246.82;12.65;;;;;;;-145.82;100.00;61645.16;4964722;28;20034;-68
2022/01/18 08:46:47;;;;;;;240.30;11.40;;;;;;;-145.82;100.00;61645.16;4965129;28;20074;-68
2022/01/18 08:49:12;;;;;;;198.65;10.23;;;;;;;-145.82;100.00;61645.16;4962782;28;20043;-68
2022/01/18 08:51:38;;;;;;;103.10;10.00;;;;;;;-145.82;100.00;61645.16;4964527;28;20105;-68
2022/01/18 08:54:04;;;;;;;112.20;9.63;;;;;;;-145.82;100.00;61645.16;4965365;28;20035;-70
2022/01/18 08:56:30;;;;;;;83.18;9.27;;;;;;;-145.82;100.00;61645.16;4965315;28;20474;-69
2022/01/18 08:58:57;;;;;;;110.65;10.25;;;;;;;-145.82;100.00;61645.16;4960904;28;20146;-70
2022/01/18 09:01:22;;;;;;;92.38;9.82;;;;;;;-145.82;100.00;61645.16;4964565;28;20596;-68
2022/01/18 09:03:49;;;;;;;156.00;11.15;;;;;;;-145.82;100.00;61645.16;4963837;28;20034;-68
2022/01/18 09:06:19;;;;;;;62.22;9.18;;;;;;;-145.82;100.00;61645.16;4962369;28;20039;-68
2022/01/18 09:08:54;;;;;;;171.52;11.65;;;;;;;-145.82;100.00;61645.16;4961521;28;20043;-68
2022/01/18 09:11:20;;;;;;;402.75;14.07;;;;;;;-145.82;100.00;61645.16;4963043;28;20145;-69
2022/01/18 09:13:45;;;;;;;180.07;11.07;;;;;;;-145.82;100.00;61645.16;4962598;28;20434;-68
2022/01/18 09:16:11;;;;;;;135.45;11.18;;;;;;;-145.82;100.00;61645.16;4962512;28;20050;-71
2022/01/18 09:18:37;;;;;;;166.35;10.52;;;;;;;-145.82;100.00;61645.16;4961357;28;20038;-69
2022/01/18 09:21:03;;;;;;;281.92;13.38;;;;;;;-145.82;100.00;61645.16;4962474;28;20043;-68
2022/01/18 09:23:29;;;;;;;497.85;17.42;;;;;;;-145.82;100.00;61645.16;4961706;28;20043;-69
2022/01/18 09:25:54;;;;;;;399.35;14.80;;;;;;;-145.82;100.00;61645.16;4962395;28;20066;-68
2022/01/18 09:28:20;;;;;;;264.08;12.65;;;;;;;-145.82;100.00;61645.16;4961038;28;20506;-68
2022/01/18 09:30:46;;;;;;;58.70;8.65;;;;;;;-145.82;100.00;61645.16;4976612;28;20107;-69
2022/01/18 09:33:11;;;;;;;41.78;9.63;;;;;;;-145.82;100.00;61645.16;4964856;28;20047;-68
2022/01/18 09:35:38;;;;;;;151.70;11.57;;;;;;;-145.82;100.00;61645.16;4963793;28;20367;-69
2022/01/18 09:38:05;;;;;;;93.70;10.80;;;;;;;-145.82;100.00;61645.16;4960261;28;20163;-69
2022/01/18 09:40:33;;;;;;;29.58;9.00;;;;;;;-145.82;100.00;61645.16;4963225;28;20627;-68
2022/01/18 09:43:02;;;;;;;19.52;7.75;;;;;;;-145.82;100.00;61645.16;4961843;28;20073;-68
2022/01/18 09:45:29;;;;;;;24.45;8.70;;;;;;;-145.82;100.00;61645.16;4963646;28;20120;-69
2022/01/18 09:47:57;;;;;;;17.38;7.45;;;;;;;-145.82;100.00;61645.16;4961378;28;20039;-69
2022/01/18 09:50:29;;;;;;;18.60;7.25;;;;;;;-145.82;100.00;61645.16;4963339;28;20038;-68
2022/01/18 09:52:55;;;;;;;19.52;6.88;;;;;;;-145.82;100.00;61645.16;4962363;28;20034;-70
2022/01/18 09:55:23;;;;;;;18.95;6.93;;;;;;;-145.82;100.00;61645.16;4961928;28;20521;-69
2022/01/18 09:57:50;;;;;;;24.17;6.97;;;;;;;-145.82;100.00;61645.16;4960427;28;20038;-70
2022/01/18 10:00:17;;;;;;;19.77;6.85;;;;;;;-145.82;100.00;61645.16;4962544;28;20051;-68
2022/01/18 10:02:42;;;;;;;16.40;5.78;;;;;;;-145.82;100.00;61645.16;4962064;28;20368;-69
2022/01/18 10:05:29;;;;;;;23.80;6.78;;;;;;;-145.82;100.00;61645.16;4961686;28;20101;-70
2022/01/18 10:08:00;;;;;;;24.52;7.47;;;;;;;-145.82;100.00;61645.16;4958069;28;20313;-69
2022/01/18 10:10:39;;;;;;;16.47;6.80;;;;;;;-145.82;100.00;61645.16;4962127;28;20035;-69
2022/01/18 10:13:05;;;;;;;17.65;6.85;;;;;;;-145.82;100.00;61645.16;4962186;28;20033;-68
2022/01/18 10:15:31;;;;;;;17.67;6.80;;;;;;;-145.82;100.00;61645.16;4963355;28;20037;-68
2022/01/18 10:18:08;;;;;;;16.33;6.47;;;;;;;-145.82;100.00;61645.16;4961887;28;20038;-70
2022/01/18 10:20:52;;;;;;;18.08;7.38;;;;;;;-145.82;100.00;61645.16;4963985;28;20038;-68
2022/01/18 10:23:23;;;;;;;17.77;7.07;;;;;;;-145.82;100.00;61645.16;4961784;28;20379;-68
2022/01/18 10:25:50;;;;;;;16.13;6.63;;;;;;;-145.82;100.00;61645.16;4961740;28;20508;-68
2022/01/18 10:28:34;;;;;;;18.35;6.47;;;;;;;-145.82;100.00;61645.16;4962046;28;20026;-70
2022/01/18 10:31:05;;;;;;;20.08;6.63;;;;;;;-145.82;100.00;61645.16;4961778;28;20386;-68
2022/01/18 10:33:37;;;;;;;;;;;;;;;-145.82;100.00;61645.16;4961704;28;20472;-69
2022/01/18 10:36:13;;;;;;;14.43;5.90;;;;;;;-145.82;100.00;61645.16;4967089;28;20115;-68
2022/01/18 10:38:44;;;;;;;17.58;6.57;;;;;;;-145.82;100.00;61645.16;4966300;28;20070;-69
2022/01/18 10:41:33;;;;;;;16.25;5.78;;;;;;;-145.82;100.00;61645.16;4967555;28;20346;-71
2022/01/18 10:44:18;;;;;;;15.18;5.93;;;;;;;-145.82;100.00;61645.16;4966671;28;20034;-70
2022/01/18 10:46:48;;;;;;;16.25;6.07;;;;;;;-145.82;100.00;61645.16;4966062;28;20042;-69
2022/01/18 10:49:25;;;;;;;23.48;6.60;;;;;;;-145.82;100.00;61645.16;4964534;28;20639;-68
2022/01/18 10:52:02;;;;;;;14.68;6.00;;;;;;;-145.82;100.00;61645.16;4967387;28;20485;-69
2022/01/18 10:54:45;;;;;;;13.23;5.43;;;;;;;-145.82;100.00;61645.16;4965092;28;20145;-68
2022/01/18 10:57:17;;;;;;;11.55;5.53;;;;;;;-145.82;100.00;61645.16;4965210;28;20326;-69
2022/01/18 10:59:43;;;;;;;17.52;5.97;;;;;;;-145.82;100.00;61645.16;4964921;28;20047;-70
2022/01/18 11:02:17;;;;;;;12.55;4.50;;;;;;;-145.82;100.00;61645.16;4966535;28;20038;-68
2022/01/18 11:04:52;;;;;;;13.15;5.20;;;;;;;-145.82;100.00;61645.16;4968078;28;20381;-70
2022/01/18 11:07:24;;;;;;;11.80;4.88;;;;;;;-145.82;100.00;61645.16;4966347;28;20038;-68
2022/01/18 11:09:50;;;;;;;14.52;4.88;;;;;;;-145.82;100.00;61645.16;4982131;28;20505;-68
2022/01/18 11:12:18;;;;;;;9.57;4.40;;;;;;;-145.82;100.00;61645.16;4966405;28;20421;-69
2022/01/18 11:14:46;;;;;;;13.82;4.18;;;;;;;-145.82;100.00;61645.16;4982004;28;20735;-68
2022/01/18 11:17:23;;;;;;;12.10;3.92;;;;;;;-145.82;100.00;61645.16;4965795;28;20038;-68
2022/01/18 11:19:51;;;;;;;10.07;4.53;;;;;;;-145.82;100.00;61645.16;4966654;28;20137;-68
2022/01/18 11:22:17;;;;;;;10.15;3.95;;;;;;;-145.82;100.00;61645.16;4965361;28;20463;-68
2022/01/18 11:24:44;;;;;;;8.20;4.03;;;;;;;-145.82;100.00;61645.16;4965999;28;20035;-70
2022/01/18 11:27:14;;;;;;;15.25;4.55;;;;;;;-145.82;100.00;61645.16;4965670;28;20045;-68
2022/01/18 11:29:41;;;;;;;11.35;4.40;;;;;;;-145.82;100.00;61645.16;4965900;28;20052;-68
2022/01/18 11:32:09;;;;;;;10.65;4.60;;;;;;;-145.82;100.00;61645.16;4967496;28;20109;-68
2022/01/18 11:34:43;;;;;;;18.17;5.38;;;;;;;-145.82;100.00;61645.16;4966396;28;20039;-70
2022/01/18 11:37:21;;;;;;;12.13;5.20;;;;;;;-145.82;100.00;61645.16;4962577;28;20117;-70
2022/01/18 11:39:56;;;;;;;13.80;5.90;;;;;;;-145.82;100.00;61645.16;4963131;28;20049;-68
2022/01/18 11:42:22;;;;;;;11.20;5.68;;;;;;;-145.82;100.00;61645.16;4964832;28;20140;-69
2022/01/18 11:44:47;;;;;;;17.25;5.25;;;;;;;-145.82;100.00;61645.16;4965148;28;20110;-68
2022/01/18 11:47:27;;;;;;;12.63;5.53;;;;;;;-145.82;100.00;61645.16;4964522;28;20026;-70
2022/01/18 11:49:53;;;;;;;14.80;5.43;;;;;;;-145.82;100.00;61645.16;4965434;28;20474;-71
2022/01/18 11:52:37;;;;;;;13.88;5.53;;;;;;;-145.82;100.00;61645.16;4966373;28;20031;-69
2022/01/18 11:55:04;;;;;;;10.73;5.13;;;;;;;-145.82;100.00;61645.16;4964270;28;20046;-68
2022/01/18 11:57:30;;;;;;;11.77;5.28;;;;;;;-145.82;100.00;61645.16;4961325;28;20046;-70
2022/01/18 12:00:21;;;;;;;17.35;5.82;;;;;;;-145.82;100.00;61645.16;4964002;28;20630;-69
2022/01/18 12:02:48;;;;;;;18.52;5.35;;;;;;;-145.82;100.00;61645.16;4964571;28;20035;-69
2022/01/18 12:05:20;;;;;;;14.25;5.80;;;;;;;-145.82;100.00;61645.16;4964266;28;20061;-69
2022/01/18 12:07:56;;;;;;;11.60;5.28;;;;;;;-145.82;100.00;61645.16;4963233;28;20113;-69
2022/01/18 12:10:28;;;;;;;15.05;6.25;;;;;;;-145.82;100.00;61645.16;4965427;28;20034;-69
2022/01/18 12:12:55;;;;;;;16.13;5.75;;;;;;;-145.82;100.00;61645.16;4964666;28;20865;-69